Aérodrome :
LOGIN :

S'inscrire | Disclaimer

   EN    FR    IT 

 










Légende :    VFR   VFR Marginal   IFR   IFR Intensif   IFR Très Intensif
Visi : 
Plafond : 
>= 8 km
>= 3000ft
5 à 8 km
1000 à 3000 ft
1500m à 5 km
500 à 1000 ft
800 à 1500m
200 à 500 ft
< 800m
< 200 ft
Symboles :   Orages  Brouillard  Fortes neiges  Fortes précipitations  Vent > 20 kt
SIGMETs :   Divers  Orages  Givrage  Turbulence  Onde Orograph.  Cendres Volcan.







- Altitude de l'aérodrome : 659 ft
- Code IATA : LYN
- Voir les cartes d'approche


LFLY - Lyon Bron

DERNIER METAR :
  • 301200Z AUTO 15005KT 110V210 9999 NSC 21/09 Q1024 NOSIG

METARs EXPIRÉS :
  • 301130Z AUTO 14005KT 090V190 9999 NSC 21/09 Q1024 NOSIG
  • 301100Z AUTO 11005KT 020V150 9999 NSC 20/08 Q1024 NOSIG
  • 301030Z AUTO 12003KT 010V180 9999 NSC 19/07 Q1025 NOSIG
  • 301000Z AUTO VRB02KT 9999 NSC 18/07 Q1025 NOSIG
  • 300930Z AUTO VRB02KT 9999 NSC 17/06 Q1026 NOSIG

TAF TAF LFLY
Valide du 30 à 12h jusqu'au 31 à 12h UTC


301100Z 3012/3112 VRB02KT CAVOK
BECMG 3012/3014 16008KT
ATIS : +33 4 72 15 87 96
Pas de NOTAMs connus pour ce terrain.



MET'MAP, la Météo Aéronautique d'un coup d'oeil ! - Copyright ORBIFLY Décembre 2007 - Disclaimer

ORBIFLY MET'MAP TEAM :

Programmation & Développement : Alexandra Zaïnal
Conception & Développement : Baudouin d'Aumeries
Co-Programmation & Développement : Marc-Olivier Méhu
Soutien technique & logistique : Manuel Goepfert

Contact : metmap@orbifly.com




SOURCES & CREDITS :

   NOAA